sensor_id;sensor_type;location;lat;lon;timestamp;temperature;humidity
28532;DHT22;15738;44.860;10.066;2023-03-01T00:00:14;5.70;99.90
28532;DHT22;15738;44.860;10.066;2023-03-01T00:02:59;5.70;99.90
28532;DHT22;15738;44.860;10.066;2023-03-01T00:05:46;5.60;99.90
28532;DHT22;15738;44.860;10.066;2023-03-01T00:08:32;5.60;99.90
28532;DHT22;15738;44.860;10.066;2023-03-01T00:11:19;5.60;99.90
28532;DHT22;15738;44.860;10.066;2023-03-01T00:14:04;5.60;99.90
28532;DHT22;15738;44.860;10.066;2023-03-01T00:16:50;5.60;99.90
28532;DHT22;15738;44.860;10.066;2023-03-01T00:19:36;5.60;99.90
28532;DHT22;15738;44.860;10.066;2023-03-01T00:22:21;5.60;99.90
28532;DHT22;15738;44.860;10.066;2023-03-01T00:25:08;5.60;99.90
28532;DHT22;15738;44.860;10.066;2023-03-01T00:27:54;5.60;99.90
28532;DHT22;15738;44.860;10.066;2023-03-01T00:30:40;5.50;99.90
28532;DHT22;15738;44.860;10.066;2023-03-01T00:33:25;5.40;99.90
28532;DHT22;15738;44.860;10.066;2023-03-01T00:36:12;5.40;99.90
28532;DHT22;15738;44.860;10.066;2023-03-01T00:38:59;5.40;99.90
28532;DHT22;15738;44.860;10.066;2023-03-01T00:41:44;5.30;99.90
28532;DHT22;15738;44.860;10.066;2023-03-01T00:44:30;5.30;99.90
28532;DHT22;15738;44.860;10.066;2023-03-01T00:47:16;5.20;99.90
28532;DHT22;15738;44.860;10.066;2023-03-01T00:50:02;5.20;99.90
28532;DHT22;15738;44.860;10.066;2023-03-01T00:52:51;5.20;99.90
28532;DHT22;15738;44.860;10.066;2023-03-01T00:55:37;5.10;99.90
28532;DHT22;15738;44.860;10.066;2023-03-01T00:58:24;5.10;99.90
28532;DHT22;15738;44.860;10.066;2023-03-01T01:01:10;5.00;99.90
28532;DHT22;15738;44.860;10.066;2023-03-01T01:04:07;5.00;99.90
28532;DHT22;15738;44.860;10.066;2023-03-01T01:06:53;5.00;99.90
28532;DHT22;15738;44.860;10.066;2023-03-01T01:09:39;4.90;99.90
28532;DHT22;15738;44.860;10.066;2023-03-01T01:12:25;4.90;99.90
28532;DHT22;15738;44.860;10.066;2023-03-01T01:15:11;4.90;99.90
28532;DHT22;15738;44.860;10.066;2023-03-01T01:17:58;4.90;99.90
28532;DHT22;15738;44.860;10.066;2023-03-01T01:20:45;4.80;99.90
28532;DHT22;15738;44.860;10.066;2023-03-01T01:23:31;4.80;99.90
28532;DHT22;15738;44.860;10.066;2023-03-01T01:26:18;4.80;99.90
28532;DHT22;15738;44.860;10.066;2023-03-01T01:29:04;4.80;99.90
28532;DHT22;15738;44.860;10.066;2023-03-01T01:31:50;4.80;99.90
28532;DHT22;15738;44.860;10.066;2023-03-01T01:34:36;4.70;99.90
28532;DHT22;15738;44.860;10.066;2023-03-01T01:37:22;4.70;99.90
28532;DHT22;15738;44.860;10.066;2023-03-01T01:40:09;4.70;99.90
28532;DHT22;15738;44.860;10.066;2023-03-01T01:42:54;4.70;99.90
28532;DHT22;15738;44.860;10.066;2023-03-01T01:45:40;4.70;99.90
28532;DHT22;15738;44.860;10.066;2023-03-01T01:48:28;4.70;99.90
28532;DHT22;15738;44.860;10.066;2023-03-01T01:51:27;4.70;99.90
28532;DHT22;15738;44.860;10.066;2023-03-01T01:54:16;4.70;99.90
28532;DHT22;15738;44.860;10.066;2023-03-01T01:57:06;4.70;99.90
28532;DHT22;15738;44.860;10.066;2023-03-01T01:59:54;4.60;99.90
28532;DHT22;15738;44.860;10.066;2023-03-01T02:02:41;4.60;99.90
28532;DHT22;15738;44.860;10.066;2023-03-01T02:08:40;4.60;99.90
28532;DHT22;15738;44.860;10.066;2023-03-01T02:11:27;4.60;99.90
28532;DHT22;15738;44.860;10.066;2023-03-01T02:14:12;4.50;99.90
28532;DHT22;15738;44.860;10.066;2023-03-01T02:16:59;4.50;99.90
28532;DHT22;15738;44.860;10.066;2023-03-01T02:22:31;4.40;99.90
28532;DHT22;15738;44.860;10.066;2023-03-01T02:31:03;4.50;99.90
28532;DHT22;15738;44.860;10.066;2023-03-01T02:34:10;4.50;99.90
28532;DHT22;15738;44.860;10.066;2023-03-01T02:36:59;4.50;99.90
28532;DHT22;15738;44.860;10.066;2023-03-01T02:39:47;4.40;99.90
28532;DHT22;15738;44.860;10.066;2023-03-01T02:42:36;4.40;99.90
28532;DHT22;15738;44.860;10.066;2023-03-01T02:45:26;4.40;99.90
28532;DHT22;15738;44.860;10.066;2023-03-01T02:48:12;4.40;99.90
28532;DHT22;15738;44.860;10.066;2023-03-01T02:51:03;4.40;99.90
28532;DHT22;15738;44.860;10.066;2023-03-01T02:56:55;4.40;99.90
28532;DHT22;15738;44.860;10.066;2023-03-01T02:59:41;4.40;99.90
28532;DHT22;15738;44.860;10.066;2023-03-01T03:02:29;4.40;99.90
28532;DHT22;15738;44.860;10.066;2023-03-01T03:05:33;4.40;99.90
28532;DHT22;15738;44.860;10.066;2023-03-01T03:08:18;4.30;99.90
28532;DHT22;15738;44.860;10.066;2023-03-01T03:11:09;4.30;99.90
28532;DHT22;15738;44.860;10.066;2023-03-01T03:13:55;4.30;99.90
28532;DHT22;15738;44.860;10.066;2023-03-01T03:16:42;4.20;99.90
28532;DHT22;15738;44.860;10.066;2023-03-01T03:19:28;4.30;99.90
28532;DHT22;15738;44.860;10.066;2023-03-01T03:22:13;4.30;99.90
28532;DHT22;15738;44.860;10.066;2023-03-01T03:24:59;4.30;99.90
28532;DHT22;15738;44.860;10.066;2023-03-01T03:27:45;4.20;99.90
28532;DHT22;15738;44.860;10.066;2023-03-01T03:30:32;4.20;99.90
28532;DHT22;15738;44.860;10.066;2023-03-01T03:33:17;4.20;99.90
28532;DHT22;15738;44.860;10.066;2023-03-01T03:36:04;4.20;99.90
28532;DHT22;15738;44.860;10.066;2023-03-01T03:38:50;4.30;99.90
28532;DHT22;15738;44.860;10.066;2023-03-01T03:41:36;4.30;99.90
28532;DHT22;15738;44.860;10.066;2023-03-01T03:44:21;4.30;99.90
28532;DHT22;15738;44.860;10.066;2023-03-01T03:47:07;4.40;99.90
28532;DHT22;15738;44.860;10.066;2023-03-01T03:49:53;4.40;99.90
28532;DHT22;15738;44.860;10.066;2023-03-01T03:52:38;4.40;99.90
28532;DHT22;15738;44.860;10.066;2023-03-01T03:55:24;4.40;99.90
28532;DHT22;15738;44.860;10.066;2023-03-01T03:58:13;4.40;99.90
28532;DHT22;15738;44.860;10.066;2023-03-01T04:00:59;4.50;99.90
28532;DHT22;15738;44.860;10.066;2023-03-01T04:03:46;4.50;99.90
28532;DHT22;15738;44.860;10.066;2023-03-01T04:06:32;4.50;99.90
28532;DHT22;15738;44.860;10.066;2023-03-01T04:09:17;4.50;99.90
28532;DHT22;15738;44.860;10.066;2023-03-01T04:12:03;4.50;99.90
28532;DHT22;15738;44.860;10.066;2023-03-01T04:14:48;4.50;99.90
28532;DHT22;15738;44.860;10.066;2023-03-01T04:17:34;4.50;99.90
28532;DHT22;15738;44.860;10.066;2023-03-01T04:20:24;4.50;99.90
28532;DHT22;15738;44.860;10.066;2023-03-01T04:23:14;4.50;99.90
28532;DHT22;15738;44.860;10.066;2023-03-01T04:26:01;4.60;99.90
28532;DHT22;15738;44.860;10.066;2023-03-01T04:28:46;4.60;99.90
28532;DHT22;15738;44.860;10.066;2023-03-01T04:31:34;4.60;99.90
28532;DHT22;15738;44.860;10.066;2023-03-01T04:34:20;4.60;99.90
28532;DHT22;15738;44.860;10.066;2023-03-01T04:37:06;4.60;99.90
28532;DHT22;15738;44.860;10.066;2023-03-01T04:39:52;4.70;99.90
28532;DHT22;15738;44.860;10.066;2023-03-01T04:42:37;4.70;99.90
28532;DHT22;15738;44.860;10.066;2023-03-01T04:45:23;4.60;99.90
28532;DHT22;15738;44.860;10.066;2023-03-01T04:48:09;4.70;99.90
28532;DHT22;15738;44.860;10.066;2023-03-01T04:50:55;4.70;99.90
28532;DHT22;15738;44.860;10.066;2023-03-01T04:53:41;4.70;99.90
28532;DHT22;15738;44.860;10.066;2023-03-01T04:56:26;4.70;99.90
28532;DHT22;15738;44.860;10.066;2023-03-01T04:59:12;4.70;99.90
28532;DHT22;15738;44.860;10.066;2023-03-01T05:01:58;4.70;99.90
28532;DHT22;15738;44.860;10.066;2023-03-01T05:04:45;4.70;99.90
28532;DHT22;15738;44.860;10.066;2023-03-01T05:07:31;4.80;99.90
28532;DHT22;15738;44.860;10.066;2023-03-01T05:10:16;4.80;99.90
28532;DHT22;15738;44.860;10.066;2023-03-01T05:13:02;4.80;99.90
28532;DHT22;15738;44.860;10.066;2023-03-01T05:15:53;4.80;99.90
28532;DHT22;15738;44.860;10.066;2023-03-01T05:18:40;4.80;99.90
28532;DHT22;15738;44.860;10.066;2023-03-01T05:21:25;4.80;99.90
28532;DHT22;15738;44.860;10.066;2023-03-01T05:24:11;4.80;99.90
28532;DHT22;15738;44.860;10.066;2023-03-01T05:26:56;4.90;99.90
28532;DHT22;15738;44.860;10.066;2023-03-01T05:29:42;4.90;99.90
28532;DHT22;15738;44.860;10.066;2023-03-01T05:32:28;5.00;99.90
28532;DHT22;15738;44.860;10.066;2023-03-01T05:35:17;5.00;99.90
28532;DHT22;15738;44.860;10.066;2023-03-01T05:38:03;5.00;99.90
28532;DHT22;15738;44.860;10.066;2023-03-01T05:40:48;5.00;99.90
28532;DHT22;15738;44.860;10.066;2023-03-01T05:43:34;5.00;99.90
28532;DHT22;15738;44.860;10.066;2023-03-01T05:46:20;5.00;99.90
28532;DHT22;15738;44.860;10.066;2023-03-01T05:49:06;5.00;99.90
28532;DHT22;15738;44.860;10.066;2023-03-01T05:51:52;5.00;99.90
28532;DHT22;15738;44.860;10.066;2023-03-01T05:54:37;5.00;99.90
28532;DHT22;15738;44.860;10.066;2023-03-01T05:57:24;5.00;99.90
28532;DHT22;15738;44.860;10.066;2023-03-01T06:00:10;5.00;99.90
28532;DHT22;15738;44.860;10.066;2023-03-01T06:02:59;5.00;99.90
28532;DHT22;15738;44.860;10.066;2023-03-01T06:05:45;5.00;99.90
28532;DHT22;15738;44.860;10.066;2023-03-01T06:08:30;5.10;99.90
28532;DHT22;15738;44.860;10.066;2023-03-01T06:11:16;5.10;99.90
28532;DHT22;15738;44.860;10.066;2023-03-01T06:14:02;5.00;99.90
28532;DHT22;15738;44.860;10.066;2023-03-01T06:16:48;5.10;99.90
28532;DHT22;15738;44.860;10.066;2023-03-01T06:19:34;5.10;99.90
28532;DHT22;15738;44.860;10.066;2023-03-01T06:22:20;5.10;99.90
28532;DHT22;15738;44.860;10.066;2023-03-01T06:25:06;5.10;99.90
28532;DHT22;15738;44.860;10.066;2023-03-01T06:27:52;5.10;99.90
28532;DHT22;15738;44.860;10.066;2023-03-01T06:30:37;5.10;99.90
28532;DHT22;15738;44.860;10.066;2023-03-01T06:33:23;5.20;99.90
28532;DHT22;15738;44.860;10.066;2023-03-01T06:36:09;5.20;99.90
28532;DHT22;15738;44.860;10.066;2023-03-01T06:38:56;5.20;99.90
28532;DHT22;15738;44.860;10.066;2023-03-01T06:41:42;5.20;99.90
28532;DHT22;15738;44.860;10.066;2023-03-01T06:44:28;5.20;99.90
28532;DHT22;15738;44.860;10.066;2023-03-01T06:47:14;5.30;99.90
28532;DHT22;15738;44.860;10.066;2023-03-01T06:50:01;5.30;99.90
28532;DHT22;15738;44.860;10.066;2023-03-01T06:52:46;5.40;99.90
28532;DHT22;15738;44.860;10.066;2023-03-01T06:55:32;5.40;99.90
28532;DHT22;15738;44.860;10.066;2023-03-01T06:58:17;5.40;99.90
28532;DHT22;15738;44.860;10.066;2023-03-01T07:01:06;5.40;99.90
28532;DHT22;15738;44.860;10.066;2023-03-01T07:03:52;5.40;99.90
28532;DHT22;15738;44.860;10.066;2023-03-01T07:06:38;5.50;99.90
28532;DHT22;15738;44.860;10.066;2023-03-01T07:09:23;5.50;99.90
28532;DHT22;15738;44.860;10.066;2023-03-01T07:12:09;5.50;99.90
28532;DHT22;15738;44.860;10.066;2023-03-01T07:14:55;5.60;99.90
28532;DHT22;15738;44.860;10.066;2023-03-01T07:17:40;5.50;99.90
28532;DHT22;15738;44.860;10.066;2023-03-01T07:20:26;5.60;99.90
28532;DHT22;15738;44.860;10.066;2023-03-01T07:23:11;5.60;99.90
28532;DHT22;15738;44.860;10.066;2023-03-01T07:25:57;5.70;99.90
28532;DHT22;15738;44.860;10.066;2023-03-01T07:28:42;5.70;99.90
28532;DHT22;15738;44.860;10.066;2023-03-01T07:31:28;5.80;99.90
28532;DHT22;15738;44.860;10.066;2023-03-01T07:34:13;5.90;99.90
28532;DHT22;15738;44.860;10.066;2023-03-01T07:36:59;6.00;99.90
28532;DHT22;15738;44.860;10.066;2023-03-01T07:39:45;6.00;99.90
28532;DHT22;15738;44.860;10.066;2023-03-01T07:42:30;6.10;99.90
28532;DHT22;15738;44.860;10.066;2023-03-01T07:45:16;6.20;99.90
28532;DHT22;15738;44.860;10.066;2023-03-01T07:48:01;6.20;99.90
28532;DHT22;15738;44.860;10.066;2023-03-01T07:50:47;6.30;99.90
28532;DHT22;15738;44.860;10.066;2023-03-01T07:53:33;6.30;99.90
28532;DHT22;15738;44.860;10.066;2023-03-01T07:56:19;6.40;99.90
28532;DHT22;15738;44.860;10.066;2023-03-01T07:59:06;6.50;99.90
28532;DHT22;15738;44.860;10.066;2023-03-01T08:01:52;6.60;99.90
28532;DHT22;15738;44.860;10.066;2023-03-01T08:04:38;6.60;99.90
28532;DHT22;15738;44.860;10.066;2023-03-01T08:07:24;6.70;99.90
28532;DHT22;15738;44.860;10.066;2023-03-01T08:10:09;6.80;99.90
28532;DHT22;15738;44.860;10.066;2023-03-01T08:12:56;6.80;99.90
28532;DHT22;15738;44.860;10.066;2023-03-01T08:15:42;6.90;99.90
28532;DHT22;15738;44.860;10.066;2023-03-01T08:18:27;6.90;99.90
28532;DHT22;15738;44.860;10.066;2023-03-01T08:21:14;6.90;99.90
28532;DHT22;15738;44.860;10.066;2023-03-01T08:24:03;7.00;99.90
28532;DHT22;15738;44.860;10.066;2023-03-01T08:26:49;7.00;99.90
28532;DHT22;15738;44.860;10.066;2023-03-01T08:29:35;6.90;99.90
28532;DHT22;15738;44.860;10.066;2023-03-01T08:32:21;7.00;99.90
28532;DHT22;15738;44.860;10.066;2023-03-01T08:35:06;6.90;99.90
28532;DHT22;15738;44.860;10.066;2023-03-01T08:37:52;7.00;99.90
28532;DHT22;15738;44.860;10.066;2023-03-01T08:40:37;7.10;99.90
28532;DHT22;15738;44.860;10.066;2023-03-01T08:43:23;7.20;99.90
28532;DHT22;15738;44.860;10.066;2023-03-01T08:46:10;7.20;99.90
28532;DHT22;15738;44.860;10.066;2023-03-01T08:48:56;7.20;99.90
28532;DHT22;15738;44.860;10.066;2023-03-01T08:51:42;7.30;99.90
28532;DHT22;15738;44.860;10.066;2023-03-01T08:54:27;7.20;99.90
28532;DHT22;15738;44.860;10.066;2023-03-01T08:57:14;7.20;99.90
28532;DHT22;15738;44.860;10.066;2023-03-01T08:59:59;7.30;99.90
28532;DHT22;15738;44.860;10.066;2023-03-01T09:02:45;7.30;99.90
28532;DHT22;15738;44.860;10.066;2023-03-01T09:05:31;7.30;99.90
28532;DHT22;15738;44.860;10.066;2023-03-01T09:08:17;7.40;99.90
28532;DHT22;15738;44.860;10.066;2023-03-01T09:11:03;7.40;99.90
28532;DHT22;15738;44.860;10.066;2023-03-01T09:13:49;7.40;99.90
28532;DHT22;15738;44.860;10.066;2023-03-01T09:16:35;7.40;99.90
28532;DHT22;15738;44.860;10.066;2023-03-01T09:19:21;7.40;99.90
28532;DHT22;15738;44.860;10.066;2023-03-01T09:22:07;7.40;99.90
28532;DHT22;15738;44.860;10.066;2023-03-01T09:24:52;7.40;99.90
28532;DHT22;15738;44.860;10.066;2023-03-01T09:27:40;7.40;99.90
28532;DHT22;15738;44.860;10.066;2023-03-01T09:30:25;7.40;99.90
28532;DHT22;15738;44.860;10.066;2023-03-01T09:33:11;7.40;99.90
28532;DHT22;15738;44.860;10.066;2023-03-01T09:36:03;7.50;99.90
28532;DHT22;15738;44.860;10.066;2023-03-01T09:38:50;7.60;99.90
28532;DHT22;15738;44.860;10.066;2023-03-01T09:44:35;7.80;99.90
28532;DHT22;15738;44.860;10.066;2023-03-01T09:47:33;7.80;99.90
28532;DHT22;15738;44.860;10.066;2023-03-01T09:50:19;7.90;99.90
28532;DHT22;15738;44.860;10.066;2023-03-01T09:53:13;8.00;99.90
28532;DHT22;15738;44.860;10.066;2023-03-01T09:56:02;8.00;99.90
28532;DHT22;15738;44.860;10.066;2023-03-01T09:58:52;8.00;99.90
28532;DHT22;15738;44.860;10.066;2023-03-01T10:01:44;8.00;99.90
28532;DHT22;15738;44.860;10.066;2023-03-01T10:07:40;7.90;99.90
28532;DHT22;15738;44.860;10.066;2023-03-01T10:10:36;8.00;99.90
28532;DHT22;15738;44.860;10.066;2023-03-01T10:16:15;8.00;99.90
28532;DHT22;15738;44.860;10.066;2023-03-01T10:19:02;8.00;99.90
28532;DHT22;15738;44.860;10.066;2023-03-01T10:21:48;8.00;99.90
28532;DHT22;15738;44.860;10.066;2023-03-01T10:24:36;8.00;99.90
28532;DHT22;15738;44.860;10.066;2023-03-01T10:27:22;8.10;99.90
28532;DHT22;15738;44.860;10.066;2023-03-01T10:33:35;8.10;99.90
28532;DHT22;15738;44.860;10.066;2023-03-01T10:36:23;8.20;99.90
28532;DHT22;15738;44.860;10.066;2023-03-01T10:39:13;8.30;99.90
28532;DHT22;15738;44.860;10.066;2023-03-01T10:44:46;8.40;99.90
28532;DHT22;15738;44.860;10.066;2023-03-01T10:47:32;8.40;99.90
28532;DHT22;15738;44.860;10.066;2023-03-01T10:50:19;8.50;99.90
28532;DHT22;15738;44.860;10.066;2023-03-01T10:53:05;8.50;99.90
28532;DHT22;15738;44.860;10.066;2023-03-01T10:56:06;8.50;99.90
28532;DHT22;15738;44.860;10.066;2023-03-01T10:59:02;8.50;99.90
28532;DHT22;15738;44.860;10.066;2023-03-01T11:02:00;8.60;99.90
28532;DHT22;15738;44.860;10.066;2023-03-01T11:05:13;8.60;99.90
28532;DHT22;15738;44.860;10.066;2023-03-01T11:08:01;8.70;99.90
28532;DHT22;15738;44.860;10.066;2023-03-01T11:10:48;8.70;99.90
28532;DHT22;15738;44.860;10.066;2023-03-01T11:13:34;8.80;99.90
28532;DHT22;15738;44.860;10.066;2023-03-01T11:16:27;8.80;99.90
28532;DHT22;15738;44.860;10.066;2023-03-01T11:19:15;8.80;99.90
28532;DHT22;15738;44.860;10.066;2023-03-01T11:22:02;8.80;99.90
28532;DHT22;15738;44.860;10.066;2023-03-01T11:24:51;8.80;99.90
28532;DHT22;15738;44.860;10.066;2023-03-01T11:27:54;8.80;99.90
28532;DHT22;15738;44.860;10.066;2023-03-01T11:34:36;9.00;99.90
28532;DHT22;15738;44.860;10.066;2023-03-01T11:37:02;9.00;99.90
28532;DHT22;15738;44.860;10.066;2023-03-01T11:40:32;8.90;99.90
28532;DHT22;15738;44.860;10.066;2023-03-01T12:06:46;8.40;99.90
28532;DHT22;15738;44.860;10.066;2023-03-01T12:09:41;8.70;99.90
28532;DHT22;15738;44.860;10.066;2023-03-01T12:15:30;8.70;99.90
28532;DHT22;15738;44.860;10.066;2023-03-01T12:27:21;8.20;99.90
28532;DHT22;15738;44.860;10.066;2023-03-01T12:33:10;8.00;99.90
28532;DHT22;15738;44.860;10.066;2023-03-01T12:41:47;7.90;99.90
28532;DHT22;15738;44.860;10.066;2023-03-01T12:44:46;7.90;99.90
28532;DHT22;15738;44.860;10.066;2023-03-01T12:50:41;7.80;99.90
28532;DHT22;15738;44.860;10.066;2023-03-01T12:53:32;7.70;99.90
28532;DHT22;15738;44.860;10.066;2023-03-01T12:56:23;7.70;99.90
28532;DHT22;15738;44.860;10.066;2023-03-01T13:02:06;7.60;99.90
28532;DHT22;15738;44.860;10.066;2023-03-01T13:10:31;7.40;99.90
28532;DHT22;15738;44.860;10.066;2023-03-01T13:16:21;7.30;99.90
28532;DHT22;15738;44.860;10.066;2023-03-01T13:19:13;7.30;99.90
28532;DHT22;15738;44.860;10.066;2023-03-01T13:22:01;7.20;99.90
28532;DHT22;15738;44.860;10.066;2023-03-01T13:25:14;7.20;99.90
28532;DHT22;15738;44.860;10.066;2023-03-01T13:31:08;7.20;99.90
28532;DHT22;15738;44.860;10.066;2023-03-01T13:37:08;7.10;99.90
28532;DHT22;15738;44.860;10.066;2023-03-01T13:39:54;7.10;99.90
28532;DHT22;15738;44.860;10.066;2023-03-01T13:42:41;7.00;99.90
28532;DHT22;15738;44.860;10.066;2023-03-01T13:45:40;7.00;99.90
28532;DHT22;15738;44.860;10.066;2023-03-01T13:48:29;6.90;99.90
28532;DHT22;15738;44.860;10.066;2023-03-01T13:51:15;6.90;99.90
28532;DHT22;15738;44.860;10.066;2023-03-01T13:54:01;7.00;99.90
28532;DHT22;15738;44.860;10.066;2023-03-01T14:00:26;7.00;99.90
28532;DHT22;15738;44.860;10.066;2023-03-01T14:03:13;7.00;99.90
28532;DHT22;15738;44.860;10.066;2023-03-01T14:09:02;6.90;99.90
28532;DHT22;15738;44.860;10.066;2023-03-01T14:20:37;6.80;99.90
28532;DHT22;15738;44.860;10.066;2023-03-01T14:23:23;6.80;99.90
28532;DHT22;15738;44.860;10.066;2023-03-01T14:26:09;6.80;99.90
28532;DHT22;15738;44.860;10.066;2023-03-01T14:29:03;6.80;99.90
28532;DHT22;15738;44.860;10.066;2023-03-01T14:31:51;6.80;99.90
28532;DHT22;15738;44.860;10.066;2023-03-01T14:34:42;6.80;99.90
28532;DHT22;15738;44.860;10.066;2023-03-01T14:37:33;6.90;99.90
28532;DHT22;15738;44.860;10.066;2023-03-01T14:40:23;6.90;99.90
28532;DHT22;15738;44.860;10.066;2023-03-01T14:43:11;6.90;99.90
28532;DHT22;15738;44.860;10.066;2023-03-01T14:45:57;6.90;99.90
28532;DHT22;15738;44.860;10.066;2023-03-01T14:48:43;6.90;99.90
28532;DHT22;15738;44.860;10.066;2023-03-01T14:51:29;6.90;99.90
28532;DHT22;15738;44.860;10.066;2023-03-01T14:54:37;6.80;99.90
28532;DHT22;15738;44.860;10.066;2023-03-01T14:57:25;6.80;99.90
28532;DHT22;15738;44.860;10.066;2023-03-01T15:00:15;6.80;99.90
28532;DHT22;15738;44.860;10.066;2023-03-01T15:06:22;6.90;99.90
28532;DHT22;15738;44.860;10.066;2023-03-01T15:09:11;6.90;99.90
28532;DHT22;15738;44.860;10.066;2023-03-01T15:11:58;6.80;99.90
28532;DHT22;15738;44.860;10.066;2023-03-01T15:14:43;6.80;99.90
28532;DHT22;15738;44.860;10.066;2023-03-01T15:17:42;6.80;99.90
28532;DHT22;15738;44.860;10.066;2023-03-01T15:20:28;6.70;99.90
28532;DHT22;15738;44.860;10.066;2023-03-01T15:26:03;6.70;99.90
28532;DHT22;15738;44.860;10.066;2023-03-01T15:28:49;6.60;99.90
28532;DHT22;15738;44.860;10.066;2023-03-01T15:31:36;6.50;99.90
28532;DHT22;15738;44.860;10.066;2023-03-01T15:40:24;6.70;99.90
28532;DHT22;15738;44.860;10.066;2023-03-01T15:46:28;6.60;99.90
28532;DHT22;15738;44.860;10.066;2023-03-01T15:49:58;6.60;99.90
28532;DHT22;15738;44.860;10.066;2023-03-01T15:52:40;6.60;99.90
28532;DHT22;15738;44.860;10.066;2023-03-01T15:55:26;6.60;99.90
28532;DHT22;15738;44.860;10.066;2023-03-01T15:58:16;6.50;99.90
28532;DHT22;15738;44.860;10.066;2023-03-01T16:01:02;6.10;99.90
28532;DHT22;15738;44.860;10.066;2023-03-01T16:03:48;6.00;99.90
28532;DHT22;15738;44.860;10.066;2023-03-01T16:06:34;6.00;99.90
28532;DHT22;15738;44.860;10.066;2023-03-01T16:09:24;5.90;99.90
28532;DHT22;15738;44.860;10.066;2023-03-01T16:12:12;5.90;99.90
28532;DHT22;15738;44.860;10.066;2023-03-01T16:14:59;6.00;99.90
28532;DHT22;15738;44.860;10.066;2023-03-01T16:17:44;5.90;99.90
28532;DHT22;15738;44.860;10.066;2023-03-01T16:20:37;5.90;99.90
28532;DHT22;15738;44.860;10.066;2023-03-01T16:23:23;6.00;99.90
28532;DHT22;15738;44.860;10.066;2023-03-01T16:26:10;5.90;99.90
28532;DHT22;15738;44.860;10.066;2023-03-01T16:28:55;5.90;99.90
28532;DHT22;15738;44.860;10.066;2023-03-01T16:31:41;5.90;99.90
28532;DHT22;15738;44.860;10.066;2023-03-01T16:34:27;5.90;99.90
28532;DHT22;15738;44.860;10.066;2023-03-01T16:37:12;6.00;99.90
28532;DHT22;15738;44.860;10.066;2023-03-01T16:39:58;6.00;99.90
28532;DHT22;15738;44.860;10.066;2023-03-01T16:42:44;6.00;99.90
28532;DHT22;15738;44.860;10.066;2023-03-01T16:45:33;6.00;99.90
28532;DHT22;15738;44.860;10.066;2023-03-01T16:48:20;6.00;99.90
28532;DHT22;15738;44.860;10.066;2023-03-01T16:51:06;5.90;99.90
28532;DHT22;15738;44.860;10.066;2023-03-01T16:53:52;5.90;99.90
28532;DHT22;15738;44.860;10.066;2023-03-01T16:56:37;5.90;99.90
28532;DHT22;15738;44.860;10.066;2023-03-01T16:59:24;5.90;99.90
28532;DHT22;15738;44.860;10.066;2023-03-01T17:02:10;5.90;99.90
28532;DHT22;15738;44.860;10.066;2023-03-01T17:04:57;5.90;99.90
28532;DHT22;15738;44.860;10.066;2023-03-01T17:07:42;5.90;99.90
28532;DHT22;15738;44.860;10.066;2023-03-01T17:10:28;5.90;99.90
28532;DHT22;15738;44.860;10.066;2023-03-01T17:13:14;5.80;99.90
28532;DHT22;15738;44.860;10.066;2023-03-01T17:15:59;5.80;99.90
28532;DHT22;15738;44.860;10.066;2023-03-01T17:18:44;5.80;99.90
28532;DHT22;15738;44.860;10.066;2023-03-01T17:21:30;5.80;99.90
28532;DHT22;15738;44.860;10.066;2023-03-01T17:24:16;5.80;99.90
28532;DHT22;15738;44.860;10.066;2023-03-01T17:27:01;5.80;99.90
28532;DHT22;15738;44.860;10.066;2023-03-01T17:29:47;5.80;99.90
28532;DHT22;15738;44.860;10.066;2023-03-01T17:32:32;5.70;99.90
28532;DHT22;15738;44.860;10.066;2023-03-01T17:35:18;5.80;99.90
28532;DHT22;15738;44.860;10.066;2023-03-01T17:38:04;5.70;99.90
28532;DHT22;15738;44.860;10.066;2023-03-01T17:40:50;5.70;99.90
28532;DHT22;15738;44.860;10.066;2023-03-01T17:43:36;5.70;99.90
28532;DHT22;15738;44.860;10.066;2023-03-01T17:46:21;5.70;99.90
28532;DHT22;15738;44.860;10.066;2023-03-01T17:49:08;5.70;99.90
28532;DHT22;15738;44.860;10.066;2023-03-01T17:51:54;5.60;99.90
28532;DHT22;15738;44.860;10.066;2023-03-01T17:54:39;5.60;99.90
28532;DHT22;15738;44.860;10.066;2023-03-01T17:57:25;5.70;99.90
28532;DHT22;15738;44.860;10.066;2023-03-01T18:00:11;5.70;99.90
28532;DHT22;15738;44.860;10.066;2023-03-01T18:02:58;5.70;99.90
28532;DHT22;15738;44.860;10.066;2023-03-01T18:05:44;5.60;99.90
28532;DHT22;15738;44.860;10.066;2023-03-01T18:08:29;5.60;99.90
28532;DHT22;15738;44.860;10.066;2023-03-01T18:11:15;5.60;99.90
28532;DHT22;15738;44.860;10.066;2023-03-01T18:14:01;5.70;99.90
28532;DHT22;15738;44.860;10.066;2023-03-01T18:16:47;5.60;99.90
28532;DHT22;15738;44.860;10.066;2023-03-01T18:19:32;5.60;99.90
28532;DHT22;15738;44.860;10.066;2023-03-01T18:22:17;5.50;99.90
28532;DHT22;15738;44.860;10.066;2023-03-01T18:25:03;5.50;99.90
28532;DHT22;15738;44.860;10.066;2023-03-01T18:27:49;5.50;99.90
28532;DHT22;15738;44.860;10.066;2023-03-01T18:30:35;5.60;99.90
28532;DHT22;15738;44.860;10.066;2023-03-01T18:33:20;5.50;99.90
28532;DHT22;15738;44.860;10.066;2023-03-01T18:36:12;5.50;99.90
28532;DHT22;15738;44.860;10.066;2023-03-01T18:39:03;5.50;99.90
28532;DHT22;15738;44.860;10.066;2023-03-01T18:41:49;5.40;99.90
28532;DHT22;15738;44.860;10.066;2023-03-01T18:44:35;5.40;99.90
28532;DHT22;15738;44.860;10.066;2023-03-01T18:47:26;5.30;99.90
28532;DHT22;15738;44.860;10.066;2023-03-01T18:50:13;5.40;99.90
28532;DHT22;15738;44.860;10.066;2023-03-01T18:52:58;5.40;99.90
28532;DHT22;15738;44.860;10.066;2023-03-01T18:55:44;5.40;99.90
28532;DHT22;15738;44.860;10.066;2023-03-01T18:58:29;5.30;99.90
28532;DHT22;15738;44.860;10.066;2023-03-01T19:01:15;5.30;99.90
28532;DHT22;15738;44.860;10.066;2023-03-01T19:04:01;5.30;99.90
28532;DHT22;15738;44.860;10.066;2023-03-01T19:06:47;5.20;99.90
28532;DHT22;15738;44.860;10.066;2023-03-01T19:09:33;5.20;99.90
28532;DHT22;15738;44.860;10.066;2023-03-01T19:12:19;5.20;99.90
28532;DHT22;15738;44.860;10.066;2023-03-01T19:15:04;5.30;99.90
28532;DHT22;15738;44.860;10.066;2023-03-01T19:17:50;5.30;99.90
28532;DHT22;15738;44.860;10.066;2023-03-01T19:20:38;5.20;99.90
28532;DHT22;15738;44.860;10.066;2023-03-01T19:23:24;5.30;99.90
28532;DHT22;15738;44.860;10.066;2023-03-01T19:26:11;5.30;99.90
28532;DHT22;15738;44.860;10.066;2023-03-01T19:28:57;5.30;99.90
28532;DHT22;15738;44.860;10.066;2023-03-01T19:31:43;5.40;99.90
28532;DHT22;15738;44.860;10.066;2023-03-01T19:34:29;5.40;99.90
28532;DHT22;15738;44.860;10.066;2023-03-01T19:37:14;5.40;99.90
28532;DHT22;15738;44.860;10.066;2023-03-01T19:39:59;5.30;99.90
28532;DHT22;15738;44.860;10.066;2023-03-01T19:42:45;5.30;99.90
28532;DHT22;15738;44.860;10.066;2023-03-01T19:45:31;5.30;99.90